메인 페이지
METAR-TAF:

METAR-TAF

공항 :

이바토 공항

안타나나리보, 마다가스카르

위도: 18-48S, 경도: 047-29E, 고도: 1279m

현재 날씨관측

예보는 33분 전, 00:30시(UTC)에 발표되었습니다.
동남동6kt
온도 16°C
습도 94%
기압 1020 hPa
시정 10km 이상
고도 2000ft 상공 구름 조금

METAR: FMMI 100030Z 11006KT 9999 FEW020 16/15 Q1020 NOSIG

시각: 04:03 (01:03 UTC)

예보

예보는 2 시간 3분 전, 23:00시(UTC)에 발표되었습니다.
예보 대상 시간: 10일 00시부터 11일 06시까지 (UTC)
10kt
시정 10km 이상
고도 1700ft 상공 구름 조금
고도 2000ft 상공 구름 많음
전환 중
10일 08시부터 10일 11시까지 (UTC)
고도 2000ft 상공 구름 보통, 적란운.
고도 2300ft 상공 구름 보통
확률 30% :
일시적
10일 12시부터 10일 18시까지 (UTC)
시정: 4500m
뇌우, 비
전환 중
10일 18시부터 10일 21시까지 (UTC)
여러 방향의 바람 3kt
고도 1700ft 상공 구름 보통
고도 2000ft 상공 구름 보통
확률 40%
11일 00시부터 11일 06시까지 (UTC)
시정: 1500m
고도 300ft 상공 구름 보통
박무

TAF: FMMI 092300Z 1000/1106 10010KT 9999 FEW017 BKN020 BECMG 1008/1011 SCT020CB SCT023 PROB30 TEMPO 1012/1018 4500 TSRA BECMG 1018/1021 VRB03KT SCT017 SCT020 PROB40 1100/1106 1500 BR SCT003

4,000개 이상의 공항 관측 자료 및 예보 (METAR 및 TAF 보고).

지도상에서 검색 가능한 기상관측소가 노란 점과 빨간 점으로 표시되어 있습니다.

기상관측소 명을 보려면 표시 위로 마우스를 이동하세요.

날씨 관측과 예보를 보려면 클릭하세요.

지도 변경 : 확대하려면 엑스 표시가 있는 녹색 버튼, 축소하려면 빼기 표시가 있는 녹색 버튼, 다음 페이지의 지도를 보려면 녹색 화살표를 클릭하세요.


METAR-TAF: